Decoded Metar for VVPB (HUE in VIET NAM) (IATA:N/A) | Meteo·Mobile Aviation Weather
aviador You're here:

VVPB Decoded Metar

HUE in VIET NAM
Report Time2019-07-22 16:00:00
UTC Time2019-07-22 16:31:25
Flight Rules vfr VFR
WindVRB at 02 kt
Visibility9999 m
Phenomena:N/A
Clouds:Few 020 Hf
Scattered 070 Hf
Expected CloudBase > 4,000 ft AGL from Temp-Dew spread
CeilingNone
Temp30°C (ISA +15)
Dew Point20°C (55% RH)
Heat Index31.9°C
QNH1006 hPa
Density Alt2,333 ft
Elevation56 ft
Report Wrong Elevation
Raw Report
METAR VVPB 221600Z VRB02KT 9999 FEW020 SCT070 30/20 Q1006 NOSIG=

Extra information for VVPB:More info

Metar Taf Metar & Taf Last 4 Metars F.Rules Stats Wind Profile Meteogram Temp Stats Airport Information Weather charts Add Link Nearby VenuesMetar ALERT Operation Metar Decoded Social comments